Laceyville, Pennsylvania
Current Conditions -  °F | °C
As of 8:54 AM on Friday 31 Oct 2014 (Local Time) from KAVP Reporting Station
Clear Clear  
Wind Chill: 36°   Ceiling: Unl
Heat Index: 36°   Visibility: 10mi
Dew Point: 29°   Wind: 3mph
Humidity: 76%   Direction: 60°ENE
Pressure: 30.01"   Gusts: NA
Location:  41.65°N, 76.16°W
Report Text: KAVP 311254Z AUTO 06003KT 10SM CLR 02/M02 A3001 RMK AO2 SLP166 T00221017
Loading
Personal Weather Stations






























Interactive Weather Map
Tropical Storm Tracking
New forecast layout! Learn more

10-Day Weather Forecast

Advertisements
Track Severe Weather on mobile